sensor_id;sensor_type;location;lat;lon;timestamp;pressure;altitude;pressure_sealevel;temperature;humidity
14273;BME280;7220;49.450;11.052;2022-09-27T14:28:30;96519.25;;;16.92;55.49
14273;BME280;7220;49.450;11.052;2022-09-27T14:32:32;96547.31;;;14.48;62.94
14273;BME280;7220;49.450;11.052;2022-09-27T14:36:34;96564.91;;;13.15;65.61
14273;BME280;7220;49.450;11.052;2022-09-27T14:40:58;96566.75;;;12.54;68.72
14273;BME280;7220;49.450;11.052;2022-09-27T14:45:00;96574.94;;;12.31;69.00
14273;BME280;7220;49.450;11.052;2022-09-27T14:49:11;96584.06;;;12.38;68.18
14273;BME280;7220;49.450;11.052;2022-09-27T14:53:24;96568.63;;;12.32;65.50
14273;BME280;7220;49.450;11.052;2022-09-27T14:57:26;96578.19;;;12.13;65.21
14273;BME280;7220;49.450;11.052;2022-09-27T15:01:28;96583.59;;;12.02;67.39
14273;BME280;7220;49.450;11.052;2022-09-27T15:05:32;96588.13;;;12.11;66.04
14273;BME280;7220;49.450;11.052;2022-09-27T15:09:33;96577.22;;;12.14;66.25
14273;BME280;7220;49.450;11.052;2022-09-27T15:13:34;96578.41;;;12.31;65.66
14273;BME280;7220;49.450;11.052;2022-09-27T15:17:42;96564.31;;;12.41;64.14
14273;BME280;7220;49.450;11.052;2022-09-27T15:21:43;96572.69;;;12.05;65.76
14273;BME280;7220;49.450;11.052;2022-09-27T15:25:57;96575.47;;;11.61;66.47
14273;BME280;7220;49.450;11.052;2022-09-27T15:30:00;96586.56;;;11.45;68.18
14273;BME280;7220;49.450;11.052;2022-09-27T15:34:01;96586.75;;;11.54;66.60
14273;BME280;7220;49.450;11.052;2022-09-27T15:38:24;96584.72;;;11.46;67.43
14273;BME280;7220;49.450;11.052;2022-09-27T15:42:25;96582.66;;;11.17;68.11
14273;BME280;7220;49.450;11.052;2022-09-27T15:46:32;96579.44;;;11.02;70.55
14273;BME280;7220;49.450;11.052;2022-09-27T15:50:33;96596.50;;;10.88;70.64
14273;BME280;7220;49.450;11.052;2022-09-27T15:54:34;96576.63;;;10.71;72.32
14273;BME280;7220;49.450;11.052;2022-09-27T15:58:36;96575.41;;;10.64;73.02
14273;BME280;7220;49.450;11.052;2022-09-27T16:02:36;96576.75;;;10.58;73.07
14273;BME280;7220;49.450;11.052;2022-09-27T16:06:37;96575.56;;;10.51;73.84
14273;BME280;7220;49.450;11.052;2022-09-27T16:10:38;96571.34;;;10.48;74.38
14273;BME280;7220;49.450;11.052;2022-09-27T16:14:41;96576.16;;;10.43;75.83
14273;BME280;7220;49.450;11.052;2022-09-27T16:18:43;96600.31;;;10.40;76.14
14273;BME280;7220;49.450;11.052;2022-09-27T16:22:44;96599.06;;;10.33;76.25
14273;BME280;7220;49.450;11.052;2022-09-27T16:26:44;96599.78;;;10.23;77.29
14273;BME280;7220;49.450;11.052;2022-09-27T16:30:45;96591.56;;;10.15;78.19
14273;BME280;7220;49.450;11.052;2022-09-27T16:34:46;96588.53;;;10.08;79.44
14273;BME280;7220;49.450;11.052;2022-09-27T16:38:48;96595.41;;;10.00;80.77
14273;BME280;7220;49.450;11.052;2022-09-27T16:42:49;96607.22;;;9.95;81.43
14273;BME280;7220;49.450;11.052;2022-09-27T16:46:49;96589.94;;;9.90;81.48
14273;BME280;7220;49.450;11.052;2022-09-27T16:50:50;96597.56;;;9.83;81.74
14273;BME280;7220;49.450;11.052;2022-09-27T16:55:09;96602.25;;;9.79;83.04
14273;BME280;7220;49.450;11.052;2022-09-27T16:59:09;96606.94;;;9.76;82.99
14273;BME280;7220;49.450;11.052;2022-09-27T17:03:09;96599.44;;;9.70;83.73
14273;BME280;7220;49.450;11.052;2022-09-27T17:07:10;96602.34;;;9.67;84.59
14273;BME280;7220;49.450;11.052;2022-09-27T17:11:12;96596.50;;;9.61;84.43
14273;BME280;7220;49.450;11.052;2022-09-27T17:15:15;96595.91;;;9.58;84.54
14273;BME280;7220;49.450;11.052;2022-09-27T17:19:16;96596.28;;;9.53;85.37
14273;BME280;7220;49.450;11.052;2022-09-27T17:23:17;96608.78;;;9.51;85.45
14273;BME280;7220;49.450;11.052;2022-09-27T17:27:17;96603.72;;;9.48;85.66
14273;BME280;7220;49.450;11.052;2022-09-27T17:31:17;96602.25;;;9.44;86.13
14273;BME280;7220;49.450;11.052;2022-09-27T17:35:18;96611.41;;;9.40;85.63
14273;BME280;7220;49.450;11.052;2022-09-27T17:39:19;96602.94;;;9.35;86.59
14273;BME280;7220;49.450;11.052;2022-09-27T17:43:22;96610.38;;;9.29;86.23
14273;BME280;7220;49.450;11.052;2022-09-27T17:47:23;96611.78;;;9.22;86.34
14273;BME280;7220;49.450;11.052;2022-09-27T17:51:45;96612.25;;;9.16;85.61
14273;BME280;7220;49.450;11.052;2022-09-27T17:55:46;96616.19;;;9.10;86.24
14273;BME280;7220;49.450;11.052;2022-09-27T17:59:46;96616.75;;;9.03;87.85
14273;BME280;7220;49.450;11.052;2022-09-27T18:03:47;96629.59;;;8.96;88.49
14273;BME280;7220;49.450;11.052;2022-09-27T18:07:50;96625.09;;;8.85;90.71
14273;BME280;7220;49.450;11.052;2022-09-27T18:11:51;96628.38;;;8.76;92.20
14273;BME280;7220;49.450;11.052;2022-09-27T18:15:55;96632.44;;;8.68;93.37
14273;BME280;7220;49.450;11.052;2022-09-27T18:19:59;96629.91;;;8.67;93.53
14273;BME280;7220;49.450;11.052;2022-09-27T18:24:01;96634.44;;;8.65;94.87
14273;BME280;7220;49.450;11.052;2022-09-27T18:28:05;96643.47;;;8.62;95.61
14273;BME280;7220;49.450;11.052;2022-09-27T18:32:05;96654.06;;;8.62;96.80
14273;BME280;7220;49.450;11.052;2022-09-27T18:40:07;96657.13;;;8.30;100.00
14273;BME280;7220;49.450;11.052;2022-09-27T18:44:12;96668.03;;;8.13;100.00
14273;BME280;7220;49.450;11.052;2022-09-27T18:48:13;96652.56;;;7.94;100.00
14273;BME280;7220;49.450;11.052;2022-09-27T18:52:13;96656.69;;;7.85;100.00
14273;BME280;7220;49.450;11.052;2022-09-27T18:56:16;96658.03;;;7.78;100.00
14273;BME280;7220;49.450;11.052;2022-09-27T19:00:17;96659.94;;;7.76;100.00
14273;BME280;7220;49.450;11.052;2022-09-27T19:04:18;96650.50;;;7.71;100.00
14273;BME280;7220;49.450;11.052;2022-09-27T19:08:24;96645.34;;;7.70;100.00
14273;BME280;7220;49.450;11.052;2022-09-27T19:12:25;96652.97;;;7.74;100.00
14273;BME280;7220;49.450;11.052;2022-09-27T19:16:26;96645.03;;;7.74;100.00
14273;BME280;7220;49.450;11.052;2022-09-27T19:20:27;96645.56;;;7.80;100.00
14273;BME280;7220;49.450;11.052;2022-09-27T19:24:28;96648.00;;;7.83;100.00
14273;BME280;7220;49.450;11.052;2022-09-27T19:28:36;96656.69;;;7.85;100.00
14273;BME280;7220;49.450;11.052;2022-09-27T19:32:37;96657.31;;;7.88;100.00
14273;BME280;7220;49.450;11.052;2022-09-27T19:36:37;96661.63;;;7.89;100.00
14273;BME280;7220;49.450;11.052;2022-09-27T19:40:38;96669.25;;;7.94;100.00
14273;BME280;7220;49.450;11.052;2022-09-27T19:44:38;96662.94;;;7.97;100.00
14273;BME280;7220;49.450;11.052;2022-09-27T19:48:38;96671.59;;;7.99;100.00
14273;BME280;7220;49.450;11.052;2022-09-27T19:52:38;96670.78;;;7.98;100.00
14273;BME280;7220;49.450;11.052;2022-09-27T19:56:40;96678.19;;;7.93;100.00
14273;BME280;7220;49.450;11.052;2022-09-27T20:00:40;96677.72;;;7.86;100.00
14273;BME280;7220;49.450;11.052;2022-09-27T20:04:40;96668.41;;;7.81;100.00
14273;BME280;7220;49.450;11.052;2022-09-27T20:08:41;96689.03;;;7.76;100.00
14273;BME280;7220;49.450;11.052;2022-09-27T20:12:42;96692.94;;;7.70;100.00
14273;BME280;7220;49.450;11.052;2022-09-27T20:16:44;96690.78;;;7.62;100.00
14273;BME280;7220;49.450;11.052;2022-09-27T20:20:45;96674.56;;;7.54;100.00
14273;BME280;7220;49.450;11.052;2022-09-27T20:24:45;96689.50;;;7.55;100.00
14273;BME280;7220;49.450;11.052;2022-09-27T20:28:54;96689.72;;;7.52;100.00
14273;BME280;7220;49.450;11.052;2022-09-27T20:32:56;96679.50;;;7.46;100.00
14273;BME280;7220;49.450;11.052;2022-09-27T20:37:15;96685.97;;;7.41;100.00
14273;BME280;7220;49.450;11.052;2022-09-27T20:41:18;96682.50;;;7.41;100.00
14273;BME280;7220;49.450;11.052;2022-09-27T20:45:19;96678.97;;;7.40;100.00
14273;BME280;7220;49.450;11.052;2022-09-27T20:49:19;96683.50;;;7.38;100.00
14273;BME280;7220;49.450;11.052;2022-09-27T20:53:19;96681.81;;;7.37;100.00
14273;BME280;7220;49.450;11.052;2022-09-27T20:57:22;96671.34;;;7.36;100.00
14273;BME280;7220;49.450;11.052;2022-09-27T21:01:26;96671.56;;;7.33;100.00
14273;BME280;7220;49.450;11.052;2022-09-27T21:05:26;96680.44;;;7.32;100.00
14273;BME280;7220;49.450;11.052;2022-09-27T21:09:26;96669.75;;;7.33;100.00
14273;BME280;7220;49.450;11.052;2022-09-27T21:13:27;96663.53;;;7.34;100.00
14273;BME280;7220;49.450;11.052;2022-09-27T21:17:28;96666.06;;;7.36;100.00
14273;BME280;7220;49.450;11.052;2022-09-27T21:21:28;96660.66;;;7.37;100.00
14273;BME280;7220;49.450;11.052;2022-09-27T21:25:29;96665.13;;;7.37;100.00
14273;BME280;7220;49.450;11.052;2022-09-27T21:29:29;96660.59;;;7.39;100.00
14273;BME280;7220;49.450;11.052;2022-09-27T21:33:29;96668.28;;;7.42;100.00
14273;BME280;7220;49.450;11.052;2022-09-27T21:37:30;96670.88;;;7.44;100.00
14273;BME280;7220;49.450;11.052;2022-09-27T21:41:30;96673.28;;;7.47;100.00
14273;BME280;7220;49.450;11.052;2022-09-27T21:45:31;96663.56;;;7.47;100.00
14273;BME280;7220;49.450;11.052;2022-09-27T21:49:31;96659.00;;;7.49;100.00
14273;BME280;7220;49.450;11.052;2022-09-27T21:53:34;96658.06;;;7.50;100.00
14273;BME280;7220;49.450;11.052;2022-09-27T21:57:35;96637.03;;;7.49;100.00
14273;BME280;7220;49.450;11.052;2022-09-27T22:01:35;96658.94;;;7.51;100.00
14273;BME280;7220;49.450;11.052;2022-09-27T22:05:43;96658.19;;;7.49;100.00
14273;BME280;7220;49.450;11.052;2022-09-27T22:09:43;96653.94;;;7.46;100.00
14273;BME280;7220;49.450;11.052;2022-09-27T22:13:43;96664.63;;;7.45;100.00
14273;BME280;7220;49.450;11.052;2022-09-27T22:17:44;96658.59;;;7.42;100.00
14273;BME280;7220;49.450;11.052;2022-09-27T22:21:44;96654.44;;;7.38;100.00
14273;BME280;7220;49.450;11.052;2022-09-27T22:25:44;96666.34;;;7.31;100.00
14273;BME280;7220;49.450;11.052;2022-09-27T22:29:45;96652.63;;;7.26;100.00
14273;BME280;7220;49.450;11.052;2022-09-27T22:33:52;96668.66;;;7.23;100.00
14273;BME280;7220;49.450;11.052;2022-09-27T22:37:53;96656.78;;;7.16;100.00
14273;BME280;7220;49.450;11.052;2022-09-27T22:41:54;96662.28;;;7.13;100.00
14273;BME280;7220;49.450;11.052;2022-09-27T22:45:55;96661.31;;;7.14;100.00
14273;BME280;7220;49.450;11.052;2022-09-27T22:49:55;96649.81;;;7.15;100.00
14273;BME280;7220;49.450;11.052;2022-09-27T22:53:57;96643.69;;;7.14;100.00
14273;BME280;7220;49.450;11.052;2022-09-27T22:57:58;96654.38;;;7.13;100.00
14273;BME280;7220;49.450;11.052;2022-09-27T23:01:58;96647.38;;;7.12;100.00
14273;BME280;7220;49.450;11.052;2022-09-27T23:06:02;96651.72;;;7.13;100.00
14273;BME280;7220;49.450;11.052;2022-09-27T23:10:03;96654.25;;;7.14;100.00
14273;BME280;7220;49.450;11.052;2022-09-27T23:14:05;96642.75;;;7.15;100.00
14273;BME280;7220;49.450;11.052;2022-09-27T23:18:05;96637.75;;;7.10;100.00
14273;BME280;7220;49.450;11.052;2022-09-27T23:22:05;96631.63;;;7.10;100.00
14273;BME280;7220;49.450;11.052;2022-09-27T23:26:08;96619.16;;;7.12;100.00
14273;BME280;7220;49.450;11.052;2022-09-27T23:30:10;96618.31;;;7.12;100.00
14273;BME280;7220;49.450;11.052;2022-09-27T23:34:11;96617.47;;;7.11;100.00
14273;BME280;7220;49.450;11.052;2022-09-27T23:38:13;96619.25;;;7.10;100.00
14273;BME280;7220;49.450;11.052;2022-09-27T23:42:14;96625.50;;;7.09;100.00
14273;BME280;7220;49.450;11.052;2022-09-27T23:46:14;96613.22;;;7.08;100.00
14273;BME280;7220;49.450;11.052;2022-09-27T23:50:15;96598.25;;;7.09;100.00
14273;BME280;7220;49.450;11.052;2022-09-27T23:54:15;96574.56;;;7.07;100.00
14273;BME280;7220;49.450;11.052;2022-09-27T23:58:15;96581.53;;;7.08;100.00
